Time;durP1;ratioP1;P1;durP2;ratioP2;P2;SDS_P1;SDS_P2;PMS_P1;PMS_P2;Temp;Humidity;BMP_temperature;BMP_pressure;BME280_temperature;BME280_humidity;BME280_pressure;Samples;Min_cycle;Max_cycle;Signal;HPM_P1;HPM_P2
2021/06/08 00:00:58;;;;;;;24.10;15.80;;;17.30;99.90;;;;;;3568309;40;20056;-61
2021/06/08 00:03:23;;;;;;;22.83;16.55;;;17.30;99.90;;;;;;3571069;40;20032;-60
2021/06/08 00:05:49;;;;;;;22.77;15.93;;;17.10;99.90;;;;;;3571948;40;20138;-61
2021/06/08 00:08:14;;;;;;;23.27;15.70;;;17.10;99.90;;;;;;3573065;40;20580;-61
2021/06/08 00:10:39;;;;;;;25.67;16.73;;;17.20;99.90;;;;;;3573574;40;20037;-61
2021/06/08 00:13:05;;;;;;;25.55;16.08;;;17.10;99.90;;;;;;3576048;40;20390;-61
2021/06/08 00:15:30;;;;;;;20.00;15.07;;;17.10;99.90;;;;;;3572935;40;20032;-61
2021/06/08 00:17:56;;;;;;;25.45;16.50;;;17.00;99.90;;;;;;3574896;40;20028;-61
2021/06/08 00:20:21;;;;;;;24.30;16.67;;;17.00;99.90;;;;;;3578653;40;20032;-61
2021/06/08 00:22:47;;;;;;;22.40;16.90;;;17.00;99.90;;;;;;3578587;40;20040;-61
2021/06/08 00:25:12;;;;;;;22.15;15.65;;;16.90;99.90;;;;;;3576138;40;20645;-61
2021/06/08 00:27:38;;;;;;;27.42;16.95;;;17.00;99.90;;;;;;3575958;40;20052;-61
2021/06/08 00:30:03;;;;;;;22.67;16.27;;;16.90;99.90;;;;;;3573451;40;20025;-61
2021/06/08 00:32:29;;;;;;;23.55;16.88;;;16.80;99.90;;;;;;3572630;40;20036;-61
2021/06/08 00:34:54;;;;;;;25.58;16.10;;;16.80;99.90;;;;;;3571393;40;20573;-61
2021/06/08 00:37:20;;;;;;;24.27;17.00;;;16.80;99.90;;;;;;3570135;40;20044;-61
2021/06/08 00:39:45;;;;;;;26.40;17.08;;;16.80;99.90;;;;;;3569612;40;20032;-61
2021/06/08 00:42:11;;;;;;;24.98;17.08;;;16.80;99.90;;;;;;3571131;40;20041;-61
2021/06/08 00:44:36;;;;;;;28.70;18.05;;;16.80;99.90;;;;;;3576272;40;20346;-62
2021/06/08 00:47:02;;;;;;;23.95;16.75;;;16.70;99.90;;;;;;3575063;40;20029;-60
2021/06/08 00:49:27;;;;;;;25.40;17.00;;;16.70;99.90;;;;;;3573682;40;20041;-61
2021/06/08 00:51:53;;;;;;;24.90;15.90;;;16.70;99.90;;;;;;3572464;40;20458;-60
2021/06/08 00:54:18;;;;;;;22.10;16.10;;;16.60;99.90;;;;;;3568312;40;20021;-61
2021/06/08 00:56:44;;;;;;;24.45;16.23;;;16.60;99.90;;;;;;3570610;40;20045;-61
2021/06/08 00:59:09;;;;;;;27.20;16.52;;;16.60;99.90;;;;;;3571262;40;20805;-61
2021/06/08 01:01:35;;;;;;;24.83;17.25;;;16.80;99.90;;;;;;3571771;40;20037;-60
2021/06/08 01:04:00;;;;;;;25.52;16.80;;;16.50;99.90;;;;;;3573993;40;20638;-61
2021/06/08 01:06:26;;;;;;;24.85;17.30;;;16.50;99.90;;;;;;3575241;40;20056;-61
2021/06/08 01:08:51;;;;;;;24.83;16.50;;;16.40;99.90;;;;;;3576610;40;20811;-60
2021/06/08 01:11:17;;;;;;;25.85;17.70;;;16.30;99.90;;;;;;3578478;40;20025;-61
2021/06/08 01:13:42;;;;;;;24.67;17.63;;;16.30;99.90;;;;;;3578096;40;20036;-61
2021/06/08 01:16:08;;;;;;;26.80;18.00;;;16.30;99.90;;;;;;3571392;40;20455;-67
2021/06/08 01:18:33;;;;;;;27.30;19.15;;;16.30;99.90;;;;;;3573519;40;20036;-68
2021/06/08 01:20:59;;;;;;;27.27;18.20;;;16.30;99.90;;;;;;3574587;40;20037;-67
2021/06/08 01:23:24;;;;;;;26.20;17.58;;;16.30;99.90;;;;;;3575907;40;20039;-67
2021/06/08 01:25:50;;;;;;;27.83;17.73;;;16.30;99.90;;;;;;3579930;40;20036;-67
2021/06/08 01:28:17;;;;;;;25.88;17.80;;;16.30;99.90;;;;;;3575824;40;20051;-67
2021/06/08 01:30:42;;;;;;;25.92;18.30;;;16.30;99.90;;;;;;3572843;40;20376;-67
2021/06/08 01:33:07;;;;;;;26.15;18.80;;;16.30;99.90;;;;;;3574096;40;20048;-67
2021/06/08 01:35:33;;;;;;;25.60;17.73;;;16.30;99.90;;;;;;3576296;40;20040;-67
2021/06/08 01:37:58;;;;;;;27.80;19.13;;;16.20;99.90;;;;;;3572076;40;20044;-67
2021/06/08 01:40:24;;;;;;;31.23;19.05;;;16.20;99.90;;;;;;3573553;40;20069;-67
2021/06/08 01:42:49;;;;;;;30.55;19.33;;;16.20;99.90;;;;;;3575748;40;20060;-67
2021/06/08 01:45:15;;;;;;;26.08;17.80;;;16.20;99.90;;;;;;3577658;40;20036;-67
2021/06/08 01:47:40;;;;;;;29.10;19.00;;;16.20;99.90;;;;;;3573322;40;20142;-67
2021/06/08 01:50:06;;;;;;;26.08;18.73;;;16.20;99.90;;;;;;3579288;40;20026;-67
2021/06/08 01:52:31;;;;;;;27.15;18.30;;;16.20;99.90;;;;;;3577349;40;20095;-67
2021/06/08 01:54:57;;;;;;;27.92;17.55;;;16.20;99.90;;;;;;3578094;40;20036;-66
2021/06/08 01:57:22;;;;;;;25.77;17.70;;;16.20;99.90;;;;;;3574163;40;20115;-67
2021/06/08 01:59:48;;;;;;;27.88;19.08;;;16.20;99.90;;;;;;3576447;40;20043;-67
2021/06/08 02:02:13;;;;;;;27.05;18.92;;;14.80;99.90;;;;;;3577407;40;20024;-67
2021/06/08 02:04:39;;;;;;;26.23;18.40;;;16.10;99.90;;;;;;3575170;40;20134;-67
2021/06/08 02:07:04;;;;;;;28.05;19.00;;;16.10;99.90;;;;;;3571952;40;20032;-66
2021/06/08 02:09:30;;;;;;;24.67;17.60;;;16.10;99.90;;;;;;3571860;40;20470;-66
2021/06/08 02:11:55;;;;;;;28.33;18.98;;;16.10;99.90;;;;;;3577346;40;20064;-67
2021/06/08 02:14:21;;;;;;;28.02;17.85;;;16.10;99.90;;;;;;3576952;40;20072;-67
2021/06/08 02:16:46;;;;;;;27.77;17.60;;;16.00;99.90;;;;;;3578913;40;20088;-67
2021/06/08 02:19:12;;;;;;;28.00;18.98;;;16.00;99.90;;;;;;3577780;40;20029;-67
2021/06/08 02:21:37;;;;;;;28.80;18.75;;;16.00;99.90;;;;;;3576798;40;20125;-67
2021/06/08 02:24:03;;;;;;;25.80;18.23;;;16.00;99.90;;;;;;3575453;40;20282;-67
2021/06/08 02:26:28;;;;;;;28.98;19.35;;;16.00;99.90;;;;;;3577447;40;20032;-67
2021/06/08 02:28:54;;;;;;;30.05;18.77;;;16.00;99.90;;;;;;3575307;40;20411;-67
2021/06/08 02:31:19;;;;;;;32.55;20.55;;;16.00;99.90;;;;;;3578313;40;20033;-67
2021/06/08 02:33:46;;;;;;;30.45;19.52;;;16.10;99.90;;;;;;3575541;40;20032;-67
2021/06/08 02:36:12;;;;;;;31.67;20.63;;;16.00;99.90;;;;;;3576976;40;20663;-67
2021/06/08 02:38:37;;;;;;;34.55;21.15;;;16.00;99.90;;;;;;3574043;40;20044;-66
2021/06/08 02:41:03;;;;;;;30.42;20.27;;;16.10;99.90;;;;;;3575230;40;20020;-68
2021/06/08 02:43:28;;;;;;;32.55;21.30;;;16.40;99.90;;;;;;3576516;40;20037;-67
2021/06/08 02:45:54;;;;;;;32.15;20.60;;;16.00;99.90;;;;;;3578327;40;20138;-67
2021/06/08 02:48:19;;;;;;;29.75;21.15;;;16.00;99.90;;;;;;3579237;40;20054;-67
2021/06/08 02:50:45;;;;;;;30.50;20.23;;;16.00;99.90;;;;;;3574689;40;20786;-67
2021/06/08 02:53:10;;;;;;;31.13;20.27;;;16.20;99.90;;;;;;3575799;40;20517;-67
2021/06/08 02:55:36;;;;;;;33.92;21.08;;;16.10;99.90;;;;;;3575103;40;20747;-67
2021/06/08 02:58:01;;;;;;;29.23;19.58;;;16.10;99.90;;;;;;3576245;40;20029;-67
2021/06/08 03:00:27;;;;;;;34.25;21.73;;;15.90;99.90;;;;;;3576014;40;20045;-67
2021/06/08 03:02:52;;;;;;;36.17;21.60;;;15.90;99.90;;;;;;3576007;40;20048;-68
2021/06/08 03:05:18;;;;;;;30.33;19.73;;;15.90;99.90;;;;;;3572247;40;20036;-68
2021/06/08 03:07:43;;;;;;;34.42;20.50;;;15.90;99.90;;;;;;3576331;40;20029;-68
2021/06/08 03:10:09;;;;;;;32.08;20.60;;;15.90;99.90;;;;;;3573613;40;20092;-67
2021/06/08 03:12:34;;;;;;;35.08;21.38;;;16.00;99.90;;;;;;3575521;40;20560;-67
2021/06/08 03:15:00;;;;;;;37.10;21.63;;;15.90;99.90;;;;;;3574607;40;20025;-68
2021/06/08 03:17:25;;;;;;;30.13;20.33;;;15.90;99.90;;;;;;3576637;40;20052;-66
2021/06/08 03:19:51;;;;;;;29.95;18.63;;;15.80;99.90;;;;;;3577542;40;20033;-68
2021/06/08 03:22:17;;;;;;;31.65;20.42;;;15.80;99.90;;;;;;3577534;40;20037;-67
2021/06/08 03:24:43;;;;;;;30.55;19.20;;;15.70;99.90;;;;;;3576278;40;20040;-61
2021/06/08 03:27:09;;;;;;;27.73;19.00;;;15.70;99.90;;;;;;3572958;40;20037;-61
2021/06/08 03:29:34;;;;;;;30.50;19.40;;;15.70;99.90;;;;;;3574638;40;20727;-61
2021/06/08 03:32:00;;;;;;;31.83;20.05;;;15.70;99.90;;;;;;3575159;40;20036;-61
2021/06/08 03:34:25;;;;;;;33.70;21.15;;;15.60;99.90;;;;;;3575957;40;20036;-61
2021/06/08 03:36:51;;;;;;;30.98;20.48;;;15.70;99.90;;;;;;3576455;40;20152;-61
2021/06/08 03:39:16;;;;;;;31.65;20.27;;;15.60;99.90;;;;;;3578239;40;20655;-61
2021/06/08 03:41:42;;;;;;;30.27;19.90;;;15.50;99.90;;;;;;3576489;40;20078;-61
2021/06/08 03:44:07;;;;;;;31.70;20.83;;;15.90;99.90;;;;;;3576304;40;20032;-61
2021/06/08 03:46:34;;;;;;;32.58;20.60;;;15.50;99.90;;;;;;3578447;40;20048;-61
2021/06/08 03:49:00;;;;;;;34.03;21.05;;;15.40;99.90;;;;;;3578857;40;20040;-61
2021/06/08 03:51:25;;;;;;;33.40;21.45;;;15.50;99.90;;;;;;3574544;40;20028;-61
2021/06/08 03:53:51;;;;;;;30.60;20.25;;;15.50;99.90;;;;;;3575951;40;20040;-61
2021/06/08 03:56:16;;;;;;;32.70;21.52;;;15.50;99.90;;;;;;3575042;40;20544;-61
2021/06/08 03:58:42;;;;;;;30.67;20.05;;;15.50;99.90;;;;;;3572625;40;20036;-61
2021/06/08 04:01:07;;;;;;;32.03;20.73;;;15.50;99.90;;;;;;3579354;40;20032;-61
2021/06/08 04:03:33;;;;;;;31.48;20.70;;;15.60;99.90;;;;;;3575811;40;20055;-61
2021/06/08 04:05:58;;;;;;;31.67;20.20;;;15.50;99.90;;;;;;3573194;40;20023;-61
2021/06/08 04:08:24;;;;;;;29.52;20.45;;;15.60;99.90;;;;;;3574504;40;20068;-61
2021/06/08 04:10:49;;;;;;;32.63;20.90;;;15.60;99.90;;;;;;3574633;40;20114;-61
2021/06/08 04:13:15;;;;;;;29.45;20.20;;;16.20;99.90;;;;;;3574340;40;20035;-61
2021/06/08 04:15:40;;;;;;;30.05;20.42;;;15.70;99.90;;;;;;3572005;40;20509;-61
2021/06/08 04:18:06;;;;;;;30.52;19.30;;;15.70;99.90;;;;;;3572747;40;20619;-61
2021/06/08 04:20:31;;;;;;;32.90;21.10;;;14.80;99.90;;;;;;3570298;40;20037;-61
2021/06/08 04:22:57;;;;;;;35.53;22.90;;;15.80;99.90;;;;;;3571390;40;20032;-61
2021/06/08 04:25:22;;;;;;;33.00;21.75;;;15.90;99.90;;;;;;3575630;40;20111;-61
2021/06/08 04:27:48;;;;;;;36.38;22.42;;;15.90;99.90;;;;;;3576433;40;20037;-61
2021/06/08 04:30:14;;;;;;;36.58;22.88;;;16.00;99.90;;;;;;3576011;40;20307;-61
2021/06/08 04:32:39;;;;;;;35.60;23.25;;;16.00;99.90;;;;;;3573980;40;20017;-61
2021/06/08 04:35:05;;;;;;;35.97;23.10;;;16.10;99.90;;;;;;3576099;40;20029;-61
2021/06/08 04:37:30;;;;;;;38.22;23.23;;;16.60;99.90;;;;;;3579139;40;20056;-64
2021/06/08 04:39:56;;;;;;;36.85;23.27;;;16.20;99.90;;;;;;3578108;40;20388;-61
2021/06/08 04:42:21;;;;;;;38.00;24.60;;;16.20;99.90;;;;;;3575365;40;20389;-61
2021/06/08 04:44:47;;;;;;;34.00;23.30;;;16.30;99.90;;;;;;3574577;40;20033;-61
2021/06/08 04:47:12;;;;;;;36.95;23.13;;;16.30;99.90;;;;;;3577416;40;21029;-61
2021/06/08 04:49:38;;;;;;;33.10;21.88;;;16.40;99.90;;;;;;3576962;40;20058;-61
2021/06/08 04:52:03;;;;;;;35.08;22.10;;;16.50;99.90;;;;;;3575606;40;20028;-61
2021/06/08 04:54:28;;;;;;;30.77;19.88;;;16.50;99.90;;;;;;3576470;40;20095;-60
2021/06/08 04:56:54;;;;;;;34.70;21.42;;;16.60;99.90;;;;;;3575770;40;20029;-61
2021/06/08 04:59:19;;;;;;;35.42;19.77;;;16.60;99.90;;;;;;3575983;40;20036;-61
2021/06/08 05:01:45;;;;;;;30.55;20.13;;;16.60;99.90;;;;;;3578347;40;20096;-61
2021/06/08 05:04:11;;;;;;;29.88;18.80;;;16.60;99.90;;;;;;3578348;40;20037;-61
2021/06/08 05:06:36;;;;;;;25.05;17.73;;;16.80;99.90;;;;;;3577394;40;20025;-61
2021/06/08 05:09:02;;;;;;;24.00;16.95;;;16.80;99.90;;;;;;3577935;40;20036;-61
2021/06/08 05:11:27;;;;;;;25.02;17.33;;;16.90;99.90;;;;;;3579373;40;20025;-62
2021/06/08 05:13:53;;;;;;;28.83;18.83;;;16.90;99.90;;;;;;3579939;40;20145;-63
2021/06/08 05:16:18;;;;;;;23.23;16.88;;;17.10;99.90;;;;;;3574248;40;20322;-62
2021/06/08 05:18:44;;;;;;;26.38;16.98;;;17.10;99.90;;;;;;3576867;40;20125;-62
2021/06/08 05:21:09;;;;;;;24.42;16.13;;;17.10;99.90;;;;;;3575878;40;20575;-62
2021/06/08 05:23:35;;;;;;;21.10;15.27;;;17.20;99.90;;;;;;3576412;40;20054;-62
2021/06/08 05:26:00;;;;;;;19.80;14.98;;;17.30;99.90;;;;;;3577836;40;20025;-62
2021/06/08 05:28:26;;;;;;;19.42;13.57;;;17.30;99.90;;;;;;3574182;40;20417;-62
2021/06/08 05:30:52;;;;;;;19.67;14.00;;;17.40;99.90;;;;;;3572396;40;20512;-62
2021/06/08 05:33:17;;;;;;;24.15;12.90;;;17.40;99.90;;;;;;3578942;40;20021;-63
2021/06/08 05:35:43;;;;;;;19.50;14.55;;;17.50;99.90;;;;;;3574616;40;20055;-62
2021/06/08 05:38:08;;;;;;;19.48;12.65;;;17.60;99.90;;;;;;3574326;40;20063;-63
2021/06/08 05:40:36;;;;;;;14.35;11.13;;;18.00;99.90;;;;;;3576883;40;20036;-63
2021/06/08 05:43:02;;;;;;;19.65;11.40;;;18.20;99.90;;;;;;3577836;40;20708;-63
2021/06/08 05:45:28;;;;;;;21.02;11.55;;;17.90;99.90;;;;;;3574583;40;20047;-63
2021/06/08 05:47:53;;;;;;;13.77;10.93;;;17.90;99.90;;;;;;3579173;40;20033;-63
2021/06/08 05:50:19;;;;;;;18.55;11.45;;;17.90;99.90;;;;;;3579512;40;20040;-62
2021/06/08 05:52:44;;;;;;;16.20;10.20;;;18.10;99.90;;;;;;3576907;40;20420;-62
2021/06/08 05:55:09;;;;;;;18.20;11.65;;;18.20;99.90;;;;;;3574507;40;20096;-62
2021/06/08 05:57:35;;;;;;;18.17;10.27;;;18.30;99.90;;;;;;3572776;40;20037;-62
2021/06/08 06:00:04;;;;;;;13.07;9.73;;;18.40;99.90;;;;;;3574812;40;20095;-62
2021/06/08 06:02:35;;;;;;;18.20;9.88;;;18.40;99.90;;;;;;3575990;40;20025;-62
2021/06/08 06:05:01;;;;;;;19.33;10.30;;;18.50;99.90;;;;;;3582634;39;20036;-62
2021/06/08 06:07:26;;;;;;;20.40;10.57;;;18.90;99.90;;;;;;3572628;40;20021;-62
2021/06/08 06:09:52;;;;;;;16.23;9.98;;;18.60;99.90;;;;;;3572941;40;20084;-62
2021/06/08 06:12:17;;;;;;;22.58;12.40;;;18.80;99.90;;;;;;3577214;40;20032;-62
2021/06/08 06:14:43;;;;;;;16.58;9.38;;;18.90;99.90;;;;;;3579539;40;20128;-62
2021/06/08 06:17:10;;;;;;;15.15;11.13;;;19.00;99.90;;;;;;3577054;40;20040;-62
2021/06/08 06:19:36;;;;;;;15.48;9.90;;;19.10;99.90;;;;;;3575008;40;20126;-62
2021/06/08 06:22:01;;;;;;;24.60;9.73;;;19.20;99.90;;;;;;3575547;40;20041;-62
2021/06/08 06:24:28;;;;;;;17.92;9.35;;;19.40;99.90;;;;;;3577110;40;20048;-63
2021/06/08 06:26:53;;;;;;;15.63;8.80;;;19.50;99.90;;;;;;3579462;40;20029;-62
2021/06/08 06:29:19;;;;;;;15.52;9.43;;;19.60;99.90;;;;;;3573407;40;20036;-62
2021/06/08 06:31:44;;;;;;;17.23;9.80;;;19.80;99.90;;;;;;3572064;40;20033;-62
2021/06/08 06:34:10;;;;;;;17.15;8.57;;;19.90;99.90;;;;;;3578891;40;20059;-62
2021/06/08 06:36:35;;;;;;;34.45;8.35;;;20.00;99.90;;;;;;3577308;40;20039;-62
2021/06/08 06:39:01;;;;;;;19.23;7.55;;;20.10;99.90;;;;;;3578400;40;20045;-60
2021/06/08 06:41:26;;;;;;;16.45;8.23;;;20.30;99.90;;;;;;3573321;40;20391;-60
2021/06/08 06:43:52;;;;;;;12.85;8.13;;;20.40;99.90;;;;;;3574884;40;20036;-60
2021/06/08 06:46:18;;;;;;;16.63;7.10;;;20.40;99.90;;;;;;3578156;40;20038;-60
2021/06/08 06:48:43;;;;;;;16.67;7.50;;;20.50;99.90;;;;;;3579329;40;20371;-60
2021/06/08 06:51:09;;;;;;;13.35;7.75;;;20.50;99.90;;;;;;3573149;40;20025;-62
2021/06/08 06:53:34;;;;;;;10.52;6.85;;;20.60;99.90;;;;;;3576717;40;20045;-62
2021/06/08 06:56:00;;;;;;;16.10;8.65;;;20.70;99.90;;;;;;3576382;40;20520;-62
2021/06/08 06:58:25;;;;;;;20.23;9.52;;;20.90;99.90;;;;;;3575307;40;20041;-62
2021/06/08 07:00:52;;;;;;;15.40;8.95;;;20.90;99.90;;;;;;3576870;40;20040;-62
2021/06/08 07:03:18;;;;;;;10.50;6.93;;;21.00;99.90;;;;;;3579304;40;20029;-63
2021/06/08 07:05:44;;;;;;;24.23;7.85;;;21.10;99.90;;;;;;3580227;40;20032;-62
2021/06/08 07:08:09;;;;;;;13.00;8.30;;;21.30;99.90;;;;;;3578643;40;20037;-62
2021/06/08 07:10:35;;;;;;;15.25;8.20;;;21.40;99.90;;;;;;3577900;40;20125;-62
2021/06/08 07:13:05;;;;;;;12.73;7.60;;;21.50;99.90;;;;;;3578130;40;20031;-60
2021/06/08 07:15:31;;;;;;;12.93;7.70;;;21.50;99.90;;;;;;3575358;40;20025;-60
2021/06/08 07:17:56;;;;;;;12.93;7.65;;;21.60;99.90;;;;;;3576792;40;20029;-60
2021/06/08 07:20:22;;;;;;;12.95;6.53;;;21.70;99.90;;;;;;3578228;40;20051;-60
2021/06/08 07:22:47;;;;;;;8.52;6.07;;;21.80;99.90;;;;;;3579692;40;20316;-60
2021/06/08 07:25:13;;;;;;;7.63;6.10;;;21.90;99.90;;;;;;3579319;40;20393;-60
2021/06/08 07:27:39;;;;;;;12.05;6.65;;;21.90;99.90;;;;;;3577978;40;20033;-61
2021/06/08 07:30:04;;;;;;;14.88;7.22;;;22.00;99.90;;;;;;3576356;40;20029;-61
2021/06/08 07:32:30;;;;;;;9.88;6.57;;;22.20;99.90;;;;;;3577540;40;20830;-61
2021/06/08 07:34:55;;;;;;;13.02;6.63;;;22.10;99.90;;;;;;3577253;40;20024;-61
2021/06/08 07:37:21;;;;;;;9.60;6.53;;;22.40;99.90;;;;;;3577488;40;20052;-61
2021/06/08 07:39:47;;;;;;;15.80;7.10;;;22.30;99.90;;;;;;3572181;40;20025;-61
2021/06/08 07:42:12;;;;;;;11.60;6.03;;;22.40;99.90;;;;;;3570663;40;20059;-61
2021/06/08 07:44:38;;;;;;;14.40;6.53;;;22.40;99.90;;;;;;3578798;40;20410;-61
2021/06/08 07:47:03;;;;;;;9.90;7.00;;;22.60;99.90;;;;;;3576410;40;20039;-61
2021/06/08 07:49:29;;;;;;;9.13;4.88;;;22.90;99.90;;;;;;3574665;40;20033;-61
2021/06/08 07:51:54;;;;;;;10.88;6.20;;;22.90;98.20;;;;;;3574878;40;20032;-61
2021/06/08 07:54:20;;;;;;;10.57;7.55;;;22.90;99.40;;;;;;3578321;40;20068;-61
2021/06/08 07:56:45;;;;;;;8.43;6.32;;;23.10;99.20;;;;;;3572967;40;20043;-61
2021/06/08 07:59:13;;;;;;;9.75;5.30;;;23.10;99.50;;;;;;3576593;40;20374;-61
2021/06/08 08:01:38;;;;;;;10.07;5.47;;;23.30;99.40;;;;;;3578719;40;20121;-61
2021/06/08 08:04:08;;;;;;;11.00;6.15;;;23.40;99.80;;;;;;3577237;40;20062;-61
2021/06/08 08:06:34;;;;;;;11.80;5.50;;;23.60;98.60;;;;;;3576043;40;20043;-61
2021/06/08 08:09:00;;;;;;;9.48;5.35;;;23.70;98.70;;;;;;3575355;40;20418;-61
2021/06/08 08:11:27;;;;;;;8.68;5.57;;;23.70;97.10;;;;;;3577065;40;20025;-61
2021/06/08 08:13:52;;;;;;;12.68;4.63;;;23.70;97.10;;;;;;3576197;40;20127;-61
2021/06/08 08:16:18;;;;;;;17.13;5.65;;;24.00;96.10;;;;;;3573105;40;20074;-60
2021/06/08 08:18:44;;;;;;;6.72;4.78;;;24.10;96.10;;;;;;3576945;40;20025;-60
2021/06/08 08:21:09;;;;;;;5.47;4.38;;;24.40;95.50;;;;;;3584874;40;20675;-60
2021/06/08 08:23:35;;;;;;;10.00;4.65;;;24.60;94.90;;;;;;3577669;40;20032;-60
2021/06/08 08:26:00;;;;;;;4.68;4.18;;;24.80;94.80;;;;;;3579374;40;20033;-66
2021/06/08 08:28:27;;;;;;;7.72;4.00;;;24.90;93.20;;;;;;3580906;40;20310;-67
2021/06/08 08:30:52;;;;;;;9.10;4.50;;;25.10;93.40;;;;;;3576624;40;20021;-67
2021/06/08 08:33:18;;;;;;;8.88;4.50;;;25.40;94.20;;;;;;3577251;40;20134;-67
2021/06/08 08:35:43;;;;;;;6.78;4.25;;;25.90;93.50;;;;;;3574279;40;20748;-67
2021/06/08 08:38:24;;;;;;;8.48;4.40;;;26.10;92.00;;;;;;3559491;40;20084;-67
2021/06/08 08:40:49;;;;;;;7.82;4.40;;;26.10;91.30;;;;;;3574382;40;20126;-67
2021/06/08 08:43:15;;;;;;;6.40;4.03;;;26.10;90.10;;;;;;3575432;40;20043;-67
2021/06/08 08:45:40;;;;;;;5.13;4.20;;;26.30;90.40;;;;;;3574612;40;20040;-66
2021/06/08 08:48:06;;;;;;;9.32;6.38;;;26.60;90.50;;;;;;3573793;40;20025;-66
2021/06/08 08:50:31;;;;;;;6.78;4.25;;;26.70;90.00;;;;;;3576065;40;20031;-66
2021/06/08 08:52:57;;;;;;;29.67;17.73;;;27.00;86.60;;;;;;3573874;40;20040;-66
2021/06/08 08:55:23;;;;;;;7.38;3.80;;;27.20;84.40;;;;;;3575480;40;20513;-66
2021/06/08 08:57:49;;;;;;;4.32;3.90;;;27.20;80.70;;;;;;3578151;40;20052;-68
2021/06/08 09:00:14;;;;;;;5.13;4.47;;;27.30;81.30;;;;;;3574416;40;20029;-66
2021/06/08 09:02:40;;;;;;;13.65;4.30;;;27.40;79.90;;;;;;3574039;40;20028;-66
2021/06/08 09:05:05;;;;;;;5.30;3.50;;;27.50;81.70;;;;;;3578165;40;20029;-66
2021/06/08 09:07:31;;;;;;;9.13;3.20;;;27.70;74.20;;;;;;3575923;40;20048;-66
2021/06/08 09:09:57;;;;;;;4.43;3.70;;;27.70;74.80;;;;;;3569485;40;20028;-67
2021/06/08 09:12:22;;;;;;;12.18;4.38;;;27.90;77.90;;;;;;3574839;40;20040;-67
2021/06/08 09:14:48;;;;;;;9.35;3.60;;;28.10;75.50;;;;;;3578673;40;20323;-67
2021/06/08 09:17:15;;;;;;;6.57;4.00;;;28.30;74.40;;;;;;3570340;40;20037;-65
2021/06/08 09:19:41;;;;;;;7.40;3.95;;;28.40;74.70;;;;;;3574916;40;20079;-67
2021/06/08 09:23:51;;;;;;;13.50;3.83;;;28.50;74.10;;;;;;3608715;39;20201;-67
2021/06/08 09:27:07;;;;;;;13.80;3.75;;;28.70;66.50;;;;;;3576073;39;20212;-66
2021/06/08 09:29:35;;;;;;;5.03;2.75;;;28.70;67.80;;;;;;3573535;40;20317;-66
2021/06/08 09:32:29;;;;;;;6.63;2.88;;;28.40;61.20;;;;;;3570538;40;20036;-66
2021/06/08 09:35:02;;;;;;;6.47;2.92;;;28.60;64.60;;;;;;3568559;40;20041;-67
2021/06/08 09:37:42;;;;;;;3.85;2.80;;;28.80;62.70;;;;;;3572524;40;20032;-66
2021/06/08 09:40:17;;;;;;;6.65;3.10;;;28.80;63.20;;;;;;3568580;40;20032;-68
2021/06/08 09:42:43;;;;;;;5.68;3.10;;;28.60;63.30;;;;;;3571517;40;20033;-68
2021/06/08 09:45:14;;;;;;;8.40;3.95;;;29.20;62.70;;;;;;3572929;40;20029;-68
2021/06/08 09:47:42;;;;;;;7.10;5.22;;;29.30;62.50;;;;;;3572767;40;20017;-68
2021/06/08 09:50:27;;;;;;;10.07;4.95;;;29.30;60.90;;;;;;3576582;40;20631;-69
2021/06/08 09:53:25;;;;;;;6.30;3.40;;;29.40;62.40;;;;;;3573997;40;20040;-68
2021/06/08 09:55:59;;;;;;;8.73;3.42;;;29.70;60.60;;;;;;3573558;40;20352;-69
2021/06/08 09:58:27;;;;;;;7.18;3.95;;;29.80;59.70;;;;;;3574517;40;20142;-68
2021/06/08 10:01:19;;;;;;;9.05;3.53;;;29.50;59.40;;;;;;3574107;40;20253;-67
2021/06/08 10:03:50;;;;;;;14.95;9.23;;;29.20;62.10;;;;;;3574425;40;20049;-67
2021/06/08 10:06:18;;;;;;;12.18;4.28;;;29.10;62.40;;;;;;3572244;40;20029;-66
2021/06/08 10:08:55;;;;;;;9.35;4.65;;;29.20;62.10;;;;;;3567652;40;20115;-67
2021/06/08 10:11:27;;;;;;;7.95;3.15;;;29.50;57.90;;;;;;3571494;40;20040;-67
2021/06/08 10:14:09;;;;;;;3.95;3.00;;;29.40;56.80;;;;;;3571629;40;20028;-67
2021/06/08 10:16:35;;;;;;;8.38;3.10;;;29.60;57.60;;;;;;3571865;40;20032;-67
2021/06/08 10:19:03;;;;;;;6.35;3.05;;;29.40;56.60;;;;;;3572923;40;20029;-67
2021/06/08 10:21:47;;;;;;;11.10;3.42;;;29.60;57.40;;;;;;3571420;40;20051;-66
2021/06/08 10:24:32;;;;;;;6.07;3.20;;;29.70;58.40;;;;;;3568760;40;20545;-67
2021/06/08 10:26:58;;;;;;;6.10;3.20;;;29.60;55.90;;;;;;3570621;40;20043;-66
2021/06/08 10:29:34;;;;;;;6.40;2.92;;;29.70;53.50;;;;;;3567895;40;20037;-67
2021/06/08 10:32:00;;;;;;;5.38;3.30;;;30.00;53.90;;;;;;3573493;40;20035;-67
2021/06/08 10:34:28;;;;;;;6.50;3.13;;;30.10;54.50;;;;;;3571381;40;20454;-66
2021/06/08 10:36:56;;;;;;;3.55;3.00;;;29.90;55.30;;;;;;3569226;40;20115;-66
2021/06/08 10:39:25;;;;;;;5.63;2.83;;;29.80;56.80;;;;;;3566298;40;20029;-66
2021/06/08 10:41:51;;;;;;;3.30;3.00;;;29.80;53.40;;;;;;3563862;40;20028;-66
2021/06/08 10:44:19;;;;;;;10.70;3.15;;;29.80;52.30;;;;;;3564719;40;20025;-66
2021/06/08 10:46:50;;;;;;;6.18;2.92;;;29.70;54.40;;;;;;3561056;40;20029;-66
2021/06/08 10:49:17;;;;;;;7.68;2.97;;;29.50;55.30;;;;;;3565515;40;20037;-66
2021/06/08 10:52:22;;;;;;;5.47;2.97;;;29.50;55.00;;;;;;3565799;40;20606;-66
2021/06/08 10:54:53;;;;;;;5.95;3.05;;;29.90;57.60;;;;;;3551522;40;20045;-66
2021/06/08 10:57:18;;;;;;;5.78;3.55;;;30.20;55.70;;;;;;3554229;40;20053;-66
2021/06/08 10:59:49;;;;;;;7.28;3.58;;;30.60;55.40;;;;;;3557057;40;20040;-67
2021/06/08 11:02:40;;;;;;;9.57;3.58;;;30.80;55.90;;;;;;3560531;40;20029;-67
2021/06/08 11:05:06;;;;;;;10.60;3.50;;;30.40;54.50;;;;;;3561201;40;20046;-67
2021/06/08 11:07:52;;;;;;;8.00;3.28;;;30.40;56.90;;;;;;3561084;40;20717;-67
2021/06/08 11:10:26;;;;;;;10.02;3.28;;;30.80;55.70;;;;;;3561375;40;20048;-66
2021/06/08 11:13:07;;;;;;;4.10;2.88;;;30.80;54.90;;;;;;3560958;40;20073;-67
2021/06/08 11:15:43;;;;;;;6.28;3.10;;;30.90;54.90;;;;;;3560769;40;20065;-67
2021/06/08 11:18:18;;;;;;;4.97;3.17;;;30.90;54.80;;;;;;3560777;40;20048;-67
2021/06/08 11:20:44;;;;;;;;;;;31.10;55.20;;;;;;3560110;40;20502;-67
2021/06/08 11:23:10;;;;;;;6.68;3.55;;;31.00;53.60;;;;;;3560739;40;20381;-66
2021/06/08 11:25:43;;;;;;;3.53;3.00;;;31.00;53.40;;;;;;3559602;40;20029;-67
2021/06/08 11:28:11;;;;;;;4.57;3.45;;;31.20;53.40;;;;;;3560300;40;20046;-67
2021/06/08 11:30:43;;;;;;;4.18;2.95;;;31.10;53.60;;;;;;3559652;40;20065;-67
2021/06/08 11:33:31;;;;;;;5.35;3.13;;;31.80;53.00;;;;;;3559963;40;20122;-67
2021/06/08 11:35:58;;;;;;;4.43;3.00;;;30.90;56.90;;;;;;3560300;40;20030;-66
2021/06/08 11:38:24;;;;;;;5.35;3.17;;;31.60;53.10;;;;;;3559044;40;20092;-67
2021/06/08 11:40:50;;;;;;;4.32;3.40;;;31.40;53.00;;;;;;3560896;40;20730;-67
2021/06/08 11:43:16;;;;;;;5.28;3.20;;;;;;;;;;3567896;40;20060;-67
2021/06/08 11:45:47;;;;;;;4.97;3.20;;;32.40;53.10;;;;;;3570335;40;20029;-63
2021/06/08 11:48:33;;;;;;;6.95;3.25;;;32.70;52.40;;;;;;3568120;40;20100;-62
2021/06/08 11:50:59;;;;;;;10.55;3.22;;;;;;;;;;3567926;40;20041;-60
2021/06/08 11:53:25;;;;;;;7.40;3.17;;;32.70;52.50;;;;;;3569077;40;20039;-61
2021/06/08 11:56:08;;;;;;;3.75;2.92;;;;;;;;;;3568799;40;20747;-61
2021/06/08 11:58:35;;;;;;;5.88;3.33;;;;;;;;;;3569791;40;20033;-61
2021/06/08 12:01:01;;;;;;;5.82;3.20;;;33.90;50.20;;;;;;3570021;40;20047;-61
2021/06/08 12:03:28;;;;;;;4.65;3.03;;;;;;;;;;3575199;40;20160;-61
2021/06/08 12:05:55;;;;;;;10.02;3.40;;;;;;;;;;3570384;40;20040;-61
2021/06/08 12:08:30;;;;;;;4.00;3.30;;;34.40;49.40;;;;;;3567883;40;20045;-61
2021/06/08 12:10:58;;;;;;;5.07;3.08;;;34.40;50.00;;;;;;3569150;40;20099;-61
2021/06/08 12:13:29;;;;;;;3.05;2.75;;;34.40;50.20;;;;;;3568976;40;20033;-62
2021/06/08 12:15:56;;;;;;;5.72;3.10;;;34.80;48.80;;;;;;3574007;40;20300;-61
2021/06/08 12:18:34;;;;;;;7.07;3.22;;;34.60;47.90;;;;;;3569753;40;20145;-61
2021/06/08 12:21:00;;;;;;;7.82;2.92;;;;;;;;;;3569862;40;20118;-61
2021/06/08 12:23:31;;;;;;;5.80;2.97;;;35.50;47.80;;;;;;3570441;40;20179;-61
2021/06/08 12:26:14;;;;;;;6.93;2.90;;;;;;;;;;3570230;40;20040;-61
2021/06/08 12:28:58;;;;;;;4.47;3.28;;;;;;;;;;3576863;40;20455;-61
2021/06/08 12:31:24;;;;;;;4.75;2.90;;;34.40;62.30;;;;;;3568415;40;20138;-61
2021/06/08 12:33:51;;;;;;;8.65;3.20;;;;;;;;;;3568638;40;20365;-61
2021/06/08 12:36:17;;;;;;;3.60;2.85;;;;;;;;;;3570111;40;20044;-60
2021/06/08 12:38:50;;;;;;;5.45;3.58;;;;;;;;;;3568975;40;20725;-61
2021/06/08 12:41:17;;;;;;;4.53;2.75;;;34.80;47.20;;;;;;3569751;40;20102;-61